Wetterstation Vordersexau
Wetterdaten: Woche 16.09.13 - 22.09.13 (KW38)
Datum Zeit Temp. A. Feuchte A. Luftdruck Regen Wind Richtung Taupunkt Windchill Windben
16.09.2013 00:00 12,9 C 63 % 1010,3 hPa 0,5 l/m 3,2 km/h W-SW 6,0 C 12,9 C 1,8 km/h
16.09.2013 01:00 13,0 C 63 % 1010,1 hPa 0,5 l/m 0,0 km/h W 6,1 C 13,0 C 0,0 km/h
16.09.2013 02:00 12,6 C 79 % 1009,9 hPa 0,0 l/m 7,1 km/h S-SW 9,1 C 12,2 C 4,0 km/h
16.09.2013 03:00 12,4 C 82 % 1009,1 hPa 0,0 l/m 0,0 km/h SW 9,4 C 12,4 C 0,0 km/h
16.09.2013 04:00 12,7 C 83 % 1008,3 hPa 0,0 l/m 18,8 km/h S-SO 9,9 C 7,1 C 10,4 km/h
16.09.2013 05:00 13,1 C 81 % 1007,6 hPa 0,0 l/m 20,1 km/h S-SW 9,9 C 7,3 C 11,2 km/h
16.09.2013 06:00 12,0 C 83 % 1007,0 hPa 0,0 l/m 21,4 km/h S 9,2 C 5,5 C 11,9 km/h
16.09.2013 07:00 11,9 C 82 % 1006,6 hPa 0,5 l/m 21,4 km/h SW 8,9 C 5,3 C 11,9 km/h
16.09.2013 08:00 13,0 C 81 % 1006,4 hPa 0,0 l/m 20,7 km/h W-SW 9,8 C 7,0 C 11,5 km/h
16.09.2013 09:00 13,3 C 79 % 1006,3 hPa 0,0 l/m 4,5 km/h SW 9,7 C 13,3 C 2,5 km/h
16.09.2013 10:00 13,0 C 81 % 1006,2 hPa 0,0 l/m 5,2 km/h S 9,8 C 13,0 C 2,9 km/h
16.09.2013 11:00 13,6 C 79 % 1005,6 hPa 0,0 l/m 24,6 km/h W-SW 10,0 C 6,8 C 13,7 km/h
16.09.2013 12:00 14,3 C 75 % 1004,9 hPa 0,0 l/m 21,4 km/h SW 9,9 C 8,5 C 11,9 km/h
16.09.2013 13:00 14,5 C 75 % 1004,1 hPa 0,0 l/m 25,3 km/h S-SW 10,1 C 7,9 C 14,0 km/h
16.09.2013 14:00 13,6 C 81 % 1003,8 hPa 0,0 l/m 24,6 km/h S-SW 10,4 C 6,8 C 13,7 km/h
16.09.2013 15:00 15,4 C 77 % 1003,0 hPa 0,0 l/m 30,5 km/h W-NW 11,4 C 8,2 C 16,9 km/h
16.09.2013 16:00 16,9 C 73 % 1002,3 hPa 0,0 l/m 21,4 km/h W 12,0 C 11,9 C 11,9 km/h
16.09.2013 17:00 18,4 C 69 % 1001,5 hPa 0,0 l/m 24,0 km/h W 12,6 C 13,4 C 13,3 km/h
16.09.2013 18:00 14,4 C 81 % 1001,7 hPa 0,0 l/m 21,4 km/h O-NO 11,2 C 8,6 C 11,9 km/h
16.09.2013 19:00 11,1 C 83 % 1002,1 hPa 1,0 l/m 0,0 km/h SO 8,3 C 11,1 C 0,0 km/h
16.09.2013 20:00 10,1 C 82 % 1003,1 hPa 0,0 l/m 0,0 km/h N-NO 7,2 C 10,1 C 0,0 km/h
16.09.2013 21:00 10,4 C 79 % 1003,7 hPa 0,0 l/m 0,0 km/h SO 6,9 C 10,4 C 0,0 km/h
16.09.2013 22:00 10,1 C 78 % 1003,8 hPa 0,5 l/m 0,0 km/h W-NW 6,4 C 10,1 C 0,0 km/h
16.09.2013 23:00 10,0 C 75 % 1004,5 hPa 3,1 l/m 2,6 km/h SO 5,8 C 10,0 C 1,4 km/h
17.09.2013 00:00 8,8 C 76 % 1004,9 hPa 3,1 l/m 5,2 km/h SO 4,8 C 8,8 C 2,9 km/h
17.09.2013 01:00 7,9 C 76 % 1005,2 hPa 0,0 l/m 0,0 km/h N-NO 3,9 C 7,9 C 0,0 km/h
17.09.2013 02:00 7,9 C 73 % 1005,7 hPa 0,0 l/m 0,0 km/h N-NW 3,4 C 7,9 C 0,0 km/h
17.09.2013 03:00 8,3 C 72 % 1006,0 hPa 0,0 l/m 0,0 km/h W 3,6 C 8,3 C 0,0 km/h
17.09.2013 04:00 8,5 C 72 % 1005,8 hPa 0,0 l/m 0,0 km/h W 3,7 C 8,5 C 0,0 km/h
17.09.2013 05:00 8,1 C 74 % 1006,1 hPa 0,0 l/m 0,0 km/h W 3,8 C 8,1 C 0,0 km/h
17.09.2013 06:00 7,4 C 73 % 1006,1 hPa 0,0 l/m 1,9 km/h W 2,9 C 7,4 C 1,1 km/h
17.09.2013 07:00 8,1 C 74 % 1006,7 hPa 0,0 l/m 0,0 km/h S-SW 3,8 C 8,1 C 0,0 km/h
17.09.2013 08:00 8,4 C 78 % 1007,2 hPa 0,0 l/m 18,8 km/h S-SW 4,8 C 1,6 C 10,4 km/h
17.09.2013 09:00 9,5 C 84 % 1008,1 hPa 0,0 l/m 9,1 km/h W-SW 6,9 C 7,6 C 5,0 km/h
17.09.2013 10:00 10,4 C 81 % 1008,4 hPa 0,0 l/m 10,4 km/h W-SW 7,3 C 7,8 C 5,8 km/h
17.09.2013 11:00 14,3 C 70 % 1008,4 hPa 0,0 l/m 16,8 km/h W-SW 8,9 C 9,8 C 9,4 km/h
17.09.2013 12:00 13,0 C 68 % 1008,4 hPa 0,0 l/m 22,0 km/h W 7,2 C 6,6 C 12,2 km/h
17.09.2013 13:00 16,4 C 62 % 1007,9 hPa 0,0 l/m 0,6 km/h SW 9,1 C 16,4 C 0,4 km/h
17.09.2013 14:00 13,8 C 68 % 1008,0 hPa 0,0 l/m 17,5 km/h SW 8,0 C 8,9 C 9,7 km/h
17.09.2013 15:00 14,1 C 65 % 1007,4 hPa 0,0 l/m 11,7 km/h S 7,6 C 11,4 C 6,5 km/h
17.09.2013 16:00 16,9 C 58 % 1006,7 hPa 0,0 l/m 22,7 km/h S-SW 8,6 C 11,6 C 12,6 km/h
17.09.2013 17:00 16,3 C 61 % 1006,4 hPa 0,0 l/m 9,1 km/h S-SW 8,8 C 14,9 C 5,0 km/h
17.09.2013 18:00 12,2 C 75 % 1006,4 hPa 0,0 l/m 14,9 km/h W-SW 7,9 C 7,8 C 8,3 km/h
17.09.2013 19:00 11,6 C 78 % 1006,1 hPa 0,0 l/m 1,9 km/h W 7,9 C 11,6 C 1,1 km/h
17.09.2013 20:00 11,3 C 79 % 1006,0 hPa 0,0 l/m 0,6 km/h S 7,8 C 11,3 C 0,4 km/h
17.09.2013 21:00 10,2 C 83 % 1005,4 hPa 0,5 l/m 5,2 km/h S-SW 7,4 C 10,2 C 2,9 km/h
17.09.2013 22:00 10,3 C 82 % 1004,0 hPa 0,0 l/m 1,9 km/h S-SO 7,4 C 10,3 C 1,1 km/h
17.09.2013 23:00 9,8 C 83 % 1002,7 hPa 1,0 l/m 0,0 km/h SW 7,1 C 9,8 C 0,0 km/h
18.09.2013 00:00 10,1 C 81 % 1001,5 hPa 0,5 l/m 3,9 km/h S-SW 7,0 C 10,1 C 2,2 km/h
18.09.2013 01:00 11,4 C 82 % 1000,2 hPa 0,5 l/m 22,7 km/h W 8,4 C 4,3 C 12,6 km/h
18.09.2013 02:00 13,1 C 82 % 1000,3 hPa 0,0 l/m 21,4 km/h W-SW 10,1 C 6,9 C 11,9 km/h
18.09.2013 03:00 12,9 C 82 % 999,6 hPa 0,0 l/m 12,3 km/h W-NW 9,9 C 9,7 C 6,8 km/h
18.09.2013 04:00 14,1 C 82 % 999,5 hPa 0,0 l/m 16,8 km/h SW 11,1 C 9,5 C 9,4 km/h
18.09.2013 05:00 14,9 C 82 % 999,3 hPa 0,0 l/m 34,3 km/h W-SW 11,9 C 6,9 C 19,1 km/h
18.09.2013 06:00 15,1 C 82 % 999,5 hPa 0,0 l/m 24,0 km/h W-SW 12,0 C 9,0 C 13,3 km/h
18.09.2013 07:00 14,2 C 75 % 999,8 hPa 1,0 l/m 26,6 km/h W-NW 9,8 C 7,2 C 14,8 km/h
18.09.2013 08:00 14,3 C 66 % 1000,3 hPa 2,1 l/m 20,7 km/h W 8,0 C 8,7 C 11,5 km/h
18.09.2013 09:00 14,5 C 61 % 1000,3 hPa 0,5 l/m 10,4 km/h W-SW 7,1 C 12,4 C 5,8 km/h
18.09.2013 10:00 15,0 C 62 % 1000,5 hPa 1,0 l/m 21,4 km/h W 7,8 C 9,4 C 11,9 km/h
18.09.2013 11:00 15,5 C 73 % 1001,0 hPa 0,0 l/m 24,0 km/h W 10,7 C 9,5 C 13,3 km/h
18.09.2013 12:00 17,3 C 82 % 1001,2 hPa 0,5 l/m 12,3 km/h W-NW 14,2 C 14,8 C 6,8 km/h
18.09.2013 13:00 18,5 C 80 % 1001,0 hPa 0,0 l/m 14,3 km/h W-NW 15,0 C 15,6 C 7,9 km/h
18.09.2013 14:00 18,5 C 82 % 1001,2 hPa 4,7 l/m 22,0 km/h W 15,4 C 13,9 C 12,2 km/h
18.09.2013 15:00 22,2 C 67 % 1000,4 hPa 0,0 l/m 13,0 km/h NW 15,8 C 20,3 C 7,2 km/h
18.09.2013 16:00 16,5 C 81 % 1001,1 hPa 0,5 l/m 0,0 km/h W-NW 13,2 C 16,5 C 0,0 km/h
18.09.2013 17:00 18,4 C 71 % 1001,3 hPa 0,0 l/m 0,0 km/h N-NO 13,0 C 18,4 C 0,0 km/h
18.09.2013 18:00 15,9 C 81 % 1001,6 hPa 1,6 l/m 0,0 km/h W-SW 12,6 C 15,9 C 0,0 km/h
18.09.2013 19:00 14,5 C 82 % 1002,3 hPa 0,0 l/m 0,0 km/h N 11,5 C 14,5 C 0,0 km/h
18.09.2013 20:00 14,3 C 82 % 1003,4 hPa 0,0 l/m 0,6 km/h W-NW 11,3 C 14,3 C 0,4 km/h
18.09.2013 21:00 13,2 C 79 % 1004,9 hPa 0,5 l/m 0,0 km/h N-NW 9,6 C 13,2 C 0,0 km/h
18.09.2013 22:00 12,9 C 78 % 1005,6 hPa 0,5 l/m 0,0 km/h W-NW 9,2 C 12,9 C 0,0 km/h
18.09.2013 23:00 12,6 C 79 % 1006,1 hPa 0,0 l/m 0,0 km/h W-NW 9,1 C 12,6 C 0,0 km/h
19.09.2013 00:00 12,5 C 78 % 1006,9 hPa 0,0 l/m 0,0 km/h W-NW 8,8 C 12,5 C 0,0 km/h
19.09.2013 01:00 12,3 C 76 % 1007,4 hPa 0,0 l/m 0,0 km/h W-NW 8,2 C 12,3 C 0,0 km/h
19.09.2013 02:00 11,9 C 78 % 1008,4 hPa 0,0 l/m 0,0 km/h N-NO 8,2 C 11,9 C 0,0 km/h
19.09.2013 03:00 11,1 C 81 % 1008,8 hPa 0,5 l/m 0,0 km/h N-NO 8,0 C 11,1 C 0,0 km/h
19.09.2013 04:00 10,3 C 81 % 1009,9 hPa 0,0 l/m 0,0 km/h N-NO 7,2 C 10,3 C 0,0 km/h
19.09.2013 05:00 8,1 C 81 % 1010,8 hPa 0,0 l/m 0,0 km/h O-SO 5,0 C 8,1 C 0,0 km/h
19.09.2013 06:00 6,9 C 79 % 1011,3 hPa 0,0 l/m 0,0 km/h O-SO 3,5 C 6,9 C 0,0 km/h
19.09.2013 07:00 6,3 C 77 % 1012,1 hPa 0,0 l/m 0,0 km/h O-NO 2,6 C 6,3 C 0,0 km/h
19.09.2013 08:00 6,9 C 74 % 1012,6 hPa 0,0 l/m 0,0 km/h SO 2,6 C 6,9 C 0,0 km/h
19.09.2013 09:00 12,2 C 56 % 1013,3 hPa 0,0 l/m 0,0 km/h S-SO 3,7 C 12,2 C 0,0 km/h
19.09.2013 10:00 17,9 C 72 % 1013,7 hPa 0,0 l/m 0,0 km/h W-NW 12,8 C 17,9 C 0,0 km/h
19.09.2013 11:00 20,9 C 54 % 1013,7 hPa 0,0 l/m 14,3 km/h W-SW 11,2 C 18,5 C 7,9 km/h
19.09.2013 12:00 21,9 C 50 % 1013,8 hPa 0,0 l/m 9,1 km/h N 11,0 C 21,0 C 5,0 km/h
19.09.2013 13:00 18,4 C 53 % 1013,5 hPa 0,0 l/m 13,6 km/h W-NW 8,6 C 15,7 C 7,6 km/h
19.09.2013 14:00 17,2 C 60 % 1013,6 hPa 0,0 l/m 0,0 km/h W-SW 9,4 C 17,2 C 0,0 km/h
19.09.2013 15:00 16,9 C 58 % 1013,2 hPa 0,0 l/m 1,9 km/h W 8,6 C 16,9 C 1,1 km/h
19.09.2013 16:00 16,4 C 63 % 1013,2 hPa 0,0 l/m 3,9 km/h W-NW 9,3 C 16,4 C 2,2 km/h
19.09.2013 17:00 17,6 C 57 % 1012,8 hPa 0,0 l/m 0,0 km/h W-NW 9,0 C 17,6 C 0,0 km/h
19.09.2013 18:00 18,4 C 55 % 1012,7 hPa 0,0 l/m 0,0 km/h S-SW 9,2 C 18,4 C 0,0 km/h
19.09.2013 19:00 13,8 C 72 % 1013,0 hPa 0,0 l/m 0,0 km/h S-SW 8,8 C 13,8 C 0,0 km/h
19.09.2013 20:00 12,1 C 79 % 1013,4 hPa 0,0 l/m 0,0 km/h NO 8,6 C 12,1 C 0,0 km/h
19.09.2013 21:00 10,5 C 82 % 1013,9 hPa 0,0 l/m 0,0 km/h NO 7,6 C 10,5 C 0,0 km/h
19.09.2013 22:00 9,8 C 82 % 1013,9 hPa 0,0 l/m 0,0 km/h NO 6,9 C 9,8 C 0,0 km/h
19.09.2013 23:00 9,2 C 81 % 1014,1 hPa 0,0 l/m 0,0 km/h NO 6,1 C 9,2 C 0,0 km/h
20.09.2013 00:00 8,9 C 79 % 1013,9 hPa 0,0 l/m 0,0 km/h NO 5,5 C 8,9 C 0,0 km/h
20.09.2013 01:00 8,4 C 78 % 1014,1 hPa 0,0 l/m 0,0 km/h S 4,8 C 8,4 C 0,0 km/h
20.09.2013 02:00 10,6 C 79 % 1014,1 hPa 0,0 l/m 0,0 km/h SW 7,1 C 10,6 C 0,0 km/h
20.09.2013 03:00 12,6 C 80 % 1014,0 hPa 0,0 l/m 22,0 km/h S-SW 9,2 C 6,1 C 12,2 km/h
20.09.2013 04:00 12,9 C 75 % 1014,0 hPa 0,0 l/m 10,4 km/h SW 8,6 C 10,6 C 5,8 km/h
20.09.2013 05:00 12,9 C 72 % 1014,1 hPa 0,0 l/m 7,1 km/h W-SW 8,0 C 12,5 C 4,0 km/h
20.09.2013 06:00 11,8 C 77 % 1014,2 hPa 0,0 l/m 0,0 km/h SO 7,9 C 11,8 C 0,0 km/h
20.09.2013 07:00 12,4 C 75 % 1014,7 hPa 0,0 l/m 18,8 km/h W-NW 8,1 C 6,7 C 10,4 km/h
20.09.2013 08:00 12,8 C 74 % 1014,9 hPa 0,0 l/m 20,7 km/h S-SW 8,3 C 6,7 C 11,5 km/h
20.09.2013 09:00 12,7 C 77 % 1015,4 hPa 0,0 l/m 3,2 km/h NW 8,8 C 12,7 C 1,8 km/h
20.09.2013 10:00 13,9 C 75 % 1015,9 hPa 0,0 l/m 19,4 km/h W-NW 9,5 C 8,5 C 10,8 km/h
20.09.2013 11:00 16,7 C 71 % 1016,2 hPa 0,0 l/m 20,1 km/h W-SW 11,4 C 11,9 C 11,2 km/h
20.09.2013 12:00 16,8 C 69 % 1016,3 hPa 0,0 l/m 16,2 km/h S-SW 11,1 C 13,0 C 9,0 km/h
20.09.2013 13:00 16,9 C 72 % 1016,5 hPa 0,0 l/m 7,1 km/h NW 11,8 C 16,5 C 4,0 km/h
20.09.2013 14:00 17,1 C 73 % 1016,5 hPa 0,0 l/m 0,0 km/h W-SW 12,2 C 17,1 C 0,0 km/h
20.09.2013 15:00 18,1 C 70 % 1016,9 hPa 0,0 l/m 6,5 km/h W 12,5 C 18,1 C 3,6 km/h
20.09.2013 16:00 17,0 C 74 % 1016,8 hPa 0,0 l/m 1,3 km/h S-SW 12,3 C 17,0 C 0,7 km/h
20.09.2013 17:00 17,5 C 73 % 1017,4 hPa 0,0 l/m 0,0 km/h SW 12,6 C 17,5 C 0,0 km/h
20.09.2013 18:00 18,4 C 69 % 1017,9 hPa 0,0 l/m 0,0 km/h SW 12,6 C 18,4 C 0,0 km/h
20.09.2013 19:00 14,8 C 78 % 1018,6 hPa 0,0 l/m 0,0 km/h S-SO 11,0 C 14,8 C 0,0 km/h
20.09.2013 20:00 11,6 C 82 % 1019,2 hPa 0,0 l/m 0,0 km/h SO 8,6 C 11,6 C 0,0 km/h
20.09.2013 21:00 11,6 C 82 % 1020,1 hPa 0,0 l/m 0,0 km/h SO 8,6 C 11,6 C 0,0 km/h
20.09.2013 22:00 11,9 C 81 % 1020,7 hPa 0,0 l/m 0,0 km/h SO 8,7 C 11,9 C 0,0 km/h
20.09.2013 23:00 11,9 C 80 % 1021,0 hPa 0,0 l/m 0,0 km/h SO 8,6 C 11,9 C 0,0 km/h
21.09.2013 00:00 11,6 C 80 % 1021,4 hPa 0,0 l/m 0,0 km/h SO 8,3 C 11,6 C 0,0 km/h
21.09.2013 01:00 10,9 C 80 % 1021,1 hPa 0,0 l/m 0,0 km/h SO 7,6 C 10,9 C 0,0 km/h
21.09.2013 02:00 9,5 C 80 % 1021,3 hPa 0,0 l/m 0,0 km/h O-NO 6,2 C 9,5 C 0,0 km/h
21.09.2013 03:00 8,6 C 79 % 1021,8 hPa 0,0 l/m 0,0 km/h O 5,2 C 8,6 C 0,0 km/h
21.09.2013 04:00 8,3 C 77 % 1021,4 hPa 0,0 l/m 0,0 km/h SO 4,5 C 8,3 C 0,0 km/h
21.09.2013 05:00 7,5 C 77 % 1022,2 hPa 0,0 l/m 0,0 km/h SO 3,7 C 7,5 C 0,0 km/h
21.09.2013 06:00 6,2 C 78 % 1022,4 hPa 0,0 l/m 0,0 km/h SO 2,7 C 6,2 C 0,0 km/h
21.09.2013 07:00 6,3 C 75 % 1023,1 hPa 0,0 l/m 0,0 km/h SO 2,2 C 6,3 C 0,0 km/h
21.09.2013 08:00 7,7 C 72 % 1023,3 hPa 0,0 l/m 0,0 km/h S-SO 3,0 C 7,7 C 0,0 km/h
21.09.2013 09:00 12,9 C 53 % 1023,7 hPa 0,0 l/m 3,9 km/h S-SO 3,6 C 12,9 C 2,2 km/h
21.09.2013 10:00 18,7 C 73 % 1023,7 hPa 0,0 l/m 0,0 km/h W-SW 13,8 C 18,7 C 0,0 km/h
21.09.2013 11:00 23,9 C 56 % 1023,9 hPa 0,0 l/m 3,2 km/h NW 14,6 C 23,9 C 1,8 km/h
21.09.2013 12:00 24,4 C 54 % 1023,6 hPa 0,0 l/m 0,0 km/h W-NW 14,5 C 24,4 C 0,0 km/h
21.09.2013 13:00 23,6 C 53 % 1023,6 hPa 0,0 l/m 25,3 km/h W 13,4 C 20,2 C 14,0 km/h
21.09.2013 14:00 23,8 C 51 % 1023,7 hPa 0,0 l/m 1,3 km/h W-NW 13,0 C 23,8 C 0,7 km/h
21.09.2013 15:00 23,1 C 51 % 1023,7 hPa 0,0 l/m 13,0 km/h N-NW 12,4 C 21,4 C 7,2 km/h
21.09.2013 16:00 23,6 C 50 % 1023,7 hPa 0,0 l/m 0,0 km/h N-NO 12,6 C 23,6 C 0,0 km/h
21.09.2013 17:00 23,8 C 48 % 1023,6 hPa 0,0 l/m 0,0 km/h N-NO 12,1 C 23,8 C 0,0 km/h
21.09.2013 18:00 22,4 C 53 % 1023,7 hPa 0,0 l/m 0,0 km/h N-NO 12,3 C 22,4 C 0,0 km/h
21.09.2013 19:00 15,9 C 72 % 1024,1 hPa 0,0 l/m 0,0 km/h N-NO 10,9 C 15,9 C 0,0 km/h
21.09.2013 20:00 11,9 C 80 % 1024,3 hPa 0,0 l/m 0,0 km/h O-SO 8,6 C 11,9 C 0,0 km/h
21.09.2013 21:00 11,0 C 82 % 1024,9 hPa 0,0 l/m 0,0 km/h O-SO 8,0 C 11,0 C 0,0 km/h
21.09.2013 22:00 10,2 C 82 % 1025,2 hPa 0,0 l/m 0,0 km/h O-SO 7,3 C 10,2 C 0,0 km/h
21.09.2013 23:00 9,6 C 81 % 1025,5 hPa 0,0 l/m 0,0 km/h O-NO 6,5 C 9,6 C 0,0 km/h
22.09.2013 00:00 9,6 C 79 % 1025,4 hPa 0,0 l/m 0,0 km/h O-NO 6,1 C 9,6 C 0,0 km/h
22.09.2013 01:00 8,9 C 79 % 1025,6 hPa 0,0 l/m 0,0 km/h S-SO 5,5 C 8,9 C 0,0 km/h
22.09.2013 02:00 8,6 C 79 % 1025,4 hPa 0,0 l/m 0,0 km/h NO 5,2 C 8,6 C 0,0 km/h
22.09.2013 03:00 8,3 C 76 % 1025,6 hPa 0,0 l/m 0,0 km/h NO 4,3 C 8,3 C 0,0 km/h
22.09.2013 04:00 7,5 C 76 % 1025,6 hPa 0,0 l/m 0,0 km/h O-NO 3,5 C 7,5 C 0,0 km/h
22.09.2013 05:00 7,6 C 76 % 1025,3 hPa 0,0 l/m 0,0 km/h S-SO 3,6 C 7,6 C 0,0 km/h
22.09.2013 06:00 7,0 C 75 % 1025,5 hPa 0,0 l/m 0,0 km/h SO 2,9 C 7,0 C 0,0 km/h
22.09.2013 07:00 7,0 C 74 % 1025,5 hPa 0,0 l/m 0,0 km/h O-SO 2,7 C 7,0 C 0,0 km/h
22.09.2013 08:00 7,9 C 71 % 1026,1 hPa 0,0 l/m 0,0 km/h SO 3,0 C 7,9 C 0,0 km/h
22.09.2013 09:00 14,3 C 61 % 1026,1 hPa 0,0 l/m 0,0 km/h N-NW 6,9 C 14,3 C 0,0 km/h
22.09.2013 10:00 17,6 C 76 % 1026,3 hPa 0,0 l/m 0,0 km/h N 13,3 C 17,6 C 0,0 km/h
22.09.2013 11:00 20,6 C 66 % 1026,3 hPa 0,0 l/m 0,0 km/h W-NW 14,0 C 20,6 C 0,0 km/h
22.09.2013 12:00 20,9 C 64 % 1026,1 hPa 0,0 l/m 0,0 km/h W 13,8 C 20,9 C 0,0 km/h
22.09.2013 13:00 22,8 C 61 % 1025,9 hPa 0,0 l/m 1,3 km/h NO 14,9 C 22,8 C 0,7 km/h
22.09.2013 14:00 23,3 C 56 % 1025,3 hPa 0,0 l/m 1,9 km/h W-NW 14,0 C 23,3 C 1,1 km/h
22.09.2013 15:00 25,8 C 49 % 1025,0 hPa 0,0 l/m 5,8 km/h SW 14,3 C 25,8 C 3,2 km/h
22.09.2013 16:00 27,6 C 42 % 1024,5 hPa 0,0 l/m 1,9 km/h W-NW 13,5 C 27,6 C 1,1 km/h
22.09.2013 17:00 28,6 C 38 % 1024,2 hPa 0,0 l/m 1,9 km/h N-NO 12,9 C 28,6 C 1,1 km/h
22.09.2013 18:00 28,2 C 39 % 1024,0 hPa 0,0 l/m 0,0 km/h NO 12,9 C 28,2 C 0,0 km/h
22.09.2013 19:00 20,9 C 54 % 1024,1 hPa 0,0 l/m 0,0 km/h O 11,2 C 20,9 C 0,0 km/h
22.09.2013 20:00 13,2 C 77 % 1024,1 hPa 0,0 l/m 0,0 km/h O 9,3 C 13,2 C 0,0 km/h
22.09.2013 21:00 11,5 C 81 % 1024,6 hPa 0,0 l/m 0,0 km/h SO 8,4 C 11,5 C 0,0 km/h
22.09.2013 22:00 10,4 C 82 % 1024,9 hPa 0,0 l/m 5,2 km/h SO 7,5 C 10,4 C 2,9 km/h
22.09.2013 23:00 10,5 C 81 % 1025,0 hPa 0,0 l/m 0,0 km/h S-SO 7,4 C 10,5 C 0,0 km/h
Min-Datum _ 21.09.13 22.09.13 18.09.13 - 16.09.13 - 21.09.13 17.09.13 16.09.13
_ Min-Zeit 06:19 17:19 05:19 - 01:19 - 07:19 08:19 01:19
Minimum _ 6,2 C 38 % 999,3 hPa - 0,0 km/h - 2,2 C 1,6 C 0,0 km/h
Max-Datum _ 22.09.13 17.09.13 22.09.13 18.09.13 18.09.13 - 18.09.13 22.09.13 18.09.13
_ Max-Zeit 17:19 09:19 10:19 14:19 05:19 - 15:19 17:19 05:19
Maximum _ 28,6 C 84 % 1026,3 hPa 4,7 l/m 34,3 km/h
W-SW
- 15,8 C 28,6 C 19,1 km/h
W-SW
Durchschnitt _ 13,7 C 73 % 1012,9 hPa #25,4 l/m 6,2 km/h W-NW 8,7 C 12,3 C 3,5 km/h
www.sexauwetter.de